sensor_id;sensor_type;location;lat;lon;timestamp;temperature;humidity
10572;DHT22;5334;48.928;12.704;2023-08-31T00:01:39;14.60;99.90
10572;DHT22;5334;48.928;12.704;2023-08-31T00:04:05;14.60;99.90
10572;DHT22;5334;48.928;12.704;2023-08-31T00:06:43;14.60;99.90
10572;DHT22;5334;48.928;12.704;2023-08-31T00:09:11;14.60;99.90
10572;DHT22;5334;48.928;12.704;2023-08-31T00:11:37;14.60;99.90
10572;DHT22;5334;48.928;12.704;2023-08-31T00:14:03;14.60;99.90
10572;DHT22;5334;48.928;12.704;2023-08-31T00:16:30;14.60;99.90
10572;DHT22;5334;48.928;12.704;2023-08-31T00:18:56;14.60;99.90
10572;DHT22;5334;48.928;12.704;2023-08-31T00:21:22;14.60;99.90
10572;DHT22;5334;48.928;12.704;2023-08-31T00:23:49;14.60;99.90
10572;DHT22;5334;48.928;12.704;2023-08-31T00:26:14;14.60;99.90
10572;DHT22;5334;48.928;12.704;2023-08-31T00:28:40;14.60;99.90
10572;DHT22;5334;48.928;12.704;2023-08-31T00:31:08;14.60;99.90
10572;DHT22;5334;48.928;12.704;2023-08-31T00:33:34;14.60;99.90
10572;DHT22;5334;48.928;12.704;2023-08-31T00:36:03;14.60;99.90
10572;DHT22;5334;48.928;12.704;2023-08-31T00:38:29;14.60;99.90
10572;DHT22;5334;48.928;12.704;2023-08-31T00:40:55;14.60;99.90
10572;DHT22;5334;48.928;12.704;2023-08-31T00:43:21;14.70;99.90
10572;DHT22;5334;48.928;12.704;2023-08-31T00:45:49;14.70;99.90
10572;DHT22;5334;48.928;12.704;2023-08-31T00:48:16;14.70;99.90
10572;DHT22;5334;48.928;12.704;2023-08-31T00:50:43;14.80;99.90
10572;DHT22;5334;48.928;12.704;2023-08-31T00:53:09;14.80;99.90
10572;DHT22;5334;48.928;12.704;2023-08-31T00:55:36;14.80;99.90
10572;DHT22;5334;48.928;12.704;2023-08-31T00:58:02;14.80;99.90
10572;DHT22;5334;48.928;12.704;2023-08-31T01:03:12;14.60;99.90
10572;DHT22;5334;48.928;12.704;2023-08-31T01:06:15;14.60;99.90
10572;DHT22;5334;48.928;12.704;2023-08-31T01:11:49;14.40;99.90
10572;DHT22;5334;48.928;12.704;2023-08-31T01:14:24;14.40;99.90
10572;DHT22;5334;48.928;12.704;2023-08-31T01:16:51;14.40;99.90
10572;DHT22;5334;48.928;12.704;2023-08-31T01:19:48;14.40;99.90
10572;DHT22;5334;48.928;12.704;2023-08-31T01:22:29;14.50;99.90
10572;DHT22;5334;48.928;12.704;2023-08-31T01:24:56;14.50;99.90
10572;DHT22;5334;48.928;12.704;2023-08-31T01:27:23;14.40;99.90
10572;DHT22;5334;48.928;12.704;2023-08-31T01:29:49;14.40;99.90
10572;DHT22;5334;48.928;12.704;2023-08-31T01:32:15;14.30;99.90
10572;DHT22;5334;48.928;12.704;2023-08-31T01:34:41;14.30;99.90
10572;DHT22;5334;48.928;12.704;2023-08-31T01:40:24;14.30;99.90
10572;DHT22;5334;48.928;12.704;2023-08-31T01:42:48;14.30;99.90
10572;DHT22;5334;48.928;12.704;2023-08-31T01:45:19;14.30;99.90
10572;DHT22;5334;48.928;12.704;2023-08-31T01:47:46;14.30;99.90
10572;DHT22;5334;48.928;12.704;2023-08-31T01:50:12;14.40;99.90
10572;DHT22;5334;48.928;12.704;2023-08-31T01:52:37;14.30;99.90
10572;DHT22;5334;48.928;12.704;2023-08-31T01:55:04;14.30;99.90
10572;DHT22;5334;48.928;12.704;2023-08-31T01:57:31;14.30;99.90
10572;DHT22;5334;48.928;12.704;2023-08-31T01:59:57;14.30;99.90
10572;DHT22;5334;48.928;12.704;2023-08-31T02:02:23;14.30;99.90
10572;DHT22;5334;48.928;12.704;2023-08-31T02:04:49;14.20;99.90
10572;DHT22;5334;48.928;12.704;2023-08-31T02:07:16;14.20;99.90
10572;DHT22;5334;48.928;12.704;2023-08-31T02:09:42;14.10;99.90
10572;DHT22;5334;48.928;12.704;2023-08-31T02:12:07;14.10;99.90
10572;DHT22;5334;48.928;12.704;2023-08-31T02:14:35;14.10;99.90
10572;DHT22;5334;48.928;12.704;2023-08-31T02:17:01;14.10;99.90
10572;DHT22;5334;48.928;12.704;2023-08-31T02:19:26;14.10;99.90
10572;DHT22;5334;48.928;12.704;2023-08-31T02:21:52;14.10;99.90
10572;DHT22;5334;48.928;12.704;2023-08-31T02:24:17;14.10;99.90
10572;DHT22;5334;48.928;12.704;2023-08-31T02:26:43;14.10;99.90
10572;DHT22;5334;48.928;12.704;2023-08-31T02:29:09;14.10;99.90
10572;DHT22;5334;48.928;12.704;2023-08-31T02:31:34;14.10;99.90
10572;DHT22;5334;48.928;12.704;2023-08-31T02:34:00;14.10;99.90
10572;DHT22;5334;48.928;12.704;2023-08-31T02:36:26;14.10;99.90
10572;DHT22;5334;48.928;12.704;2023-08-31T02:38:51;14.10;99.90
10572;DHT22;5334;48.928;12.704;2023-08-31T02:41:18;14.00;99.90
10572;DHT22;5334;48.928;12.704;2023-08-31T02:43:44;14.00;99.90
10572;DHT22;5334;48.928;12.704;2023-08-31T02:46:10;14.10;99.90
10572;DHT22;5334;48.928;12.704;2023-08-31T02:48:36;14.10;99.90
10572;DHT22;5334;48.928;12.704;2023-08-31T02:51:01;14.10;99.90
10572;DHT22;5334;48.928;12.704;2023-08-31T02:53:29;14.00;99.90
10572;DHT22;5334;48.928;12.704;2023-08-31T02:55:55;14.00;99.90
10572;DHT22;5334;48.928;12.704;2023-08-31T02:58:21;14.00;99.90
10572;DHT22;5334;48.928;12.704;2023-08-31T03:00:46;14.00;99.90
10572;DHT22;5334;48.928;12.704;2023-08-31T03:03:16;14.00;99.90
10572;DHT22;5334;48.928;12.704;2023-08-31T03:05:43;14.00;99.90
10572;DHT22;5334;48.928;12.704;2023-08-31T03:08:09;14.00;99.90
10572;DHT22;5334;48.928;12.704;2023-08-31T03:10:36;14.00;99.90
10572;DHT22;5334;48.928;12.704;2023-08-31T03:13:02;14.00;99.90
10572;DHT22;5334;48.928;12.704;2023-08-31T03:15:27;14.00;99.90
10572;DHT22;5334;48.928;12.704;2023-08-31T03:17:53;14.00;99.90
10572;DHT22;5334;48.928;12.704;2023-08-31T03:20:19;14.10;99.90
10572;DHT22;5334;48.928;12.704;2023-08-31T03:22:44;14.10;99.90
10572;DHT22;5334;48.928;12.704;2023-08-31T03:25:10;14.10;99.90
10572;DHT22;5334;48.928;12.704;2023-08-31T03:27:36;14.20;99.90
10572;DHT22;5334;48.928;12.704;2023-08-31T03:30:02;14.20;99.90
10572;DHT22;5334;48.928;12.704;2023-08-31T03:32:29;14.10;99.90
10572;DHT22;5334;48.928;12.704;2023-08-31T03:34:54;14.10;99.90
10572;DHT22;5334;48.928;12.704;2023-08-31T03:37:23;14.10;99.90
10572;DHT22;5334;48.928;12.704;2023-08-31T03:39:48;14.10;99.90
10572;DHT22;5334;48.928;12.704;2023-08-31T03:42:14;14.10;99.90
10572;DHT22;5334;48.928;12.704;2023-08-31T03:44:40;14.10;99.90
10572;DHT22;5334;48.928;12.704;2023-08-31T03:47:05;14.10;99.90
10572;DHT22;5334;48.928;12.704;2023-08-31T03:49:31;14.10;99.90
10572;DHT22;5334;48.928;12.704;2023-08-31T03:51:57;14.00;99.90
10572;DHT22;5334;48.928;12.704;2023-08-31T03:54:23;13.90;99.90
10572;DHT22;5334;48.928;12.704;2023-08-31T03:59:15;13.80;99.90
10572;DHT22;5334;48.928;12.704;2023-08-31T04:01:41;13.80;99.90
10572;DHT22;5334;48.928;12.704;2023-08-31T04:04:06;13.80;99.90
10572;DHT22;5334;48.928;12.704;2023-08-31T04:06:32;13.80;99.90
10572;DHT22;5334;48.928;12.704;2023-08-31T04:08:58;13.80;99.90
10572;DHT22;5334;48.928;12.704;2023-08-31T04:11:25;13.80;99.90
10572;DHT22;5334;48.928;12.704;2023-08-31T04:13:51;13.90;99.90
10572;DHT22;5334;48.928;12.704;2023-08-31T04:16:16;13.90;99.90
10572;DHT22;5334;48.928;12.704;2023-08-31T04:18:42;13.90;99.90
10572;DHT22;5334;48.928;12.704;2023-08-31T04:21:08;13.90;99.90
10572;DHT22;5334;48.928;12.704;2023-08-31T04:23:34;13.90;99.90
10572;DHT22;5334;48.928;12.704;2023-08-31T04:25:59;14.00;99.90
10572;DHT22;5334;48.928;12.704;2023-08-31T04:28:25;14.00;99.90
10572;DHT22;5334;48.928;12.704;2023-08-31T04:30:51;14.00;99.90
10572;DHT22;5334;48.928;12.704;2023-08-31T04:33:18;14.00;99.90
10572;DHT22;5334;48.928;12.704;2023-08-31T04:35:43;14.00;99.90
10572;DHT22;5334;48.928;12.704;2023-08-31T04:38:09;14.00;99.90
10572;DHT22;5334;48.928;12.704;2023-08-31T04:40:35;14.00;99.90
10572;DHT22;5334;48.928;12.704;2023-08-31T04:43:02;14.00;99.90
10572;DHT22;5334;48.928;12.704;2023-08-31T04:45:28;14.00;99.90
10572;DHT22;5334;48.928;12.704;2023-08-31T04:47:54;14.00;99.90
10572;DHT22;5334;48.928;12.704;2023-08-31T04:50:20;14.10;99.90
10572;DHT22;5334;48.928;12.704;2023-08-31T04:52:45;14.10;99.90
10572;DHT22;5334;48.928;12.704;2023-08-31T04:55:12;14.10;99.90
10572;DHT22;5334;48.928;12.704;2023-08-31T04:57:39;14.00;99.90
10572;DHT22;5334;48.928;12.704;2023-08-31T05:00:05;14.00;99.90
10572;DHT22;5334;48.928;12.704;2023-08-31T05:02:34;14.00;99.90
10572;DHT22;5334;48.928;12.704;2023-08-31T05:05:00;13.90;99.90
10572;DHT22;5334;48.928;12.704;2023-08-31T05:07:25;13.90;99.90
10572;DHT22;5334;48.928;12.704;2023-08-31T05:09:51;13.90;99.90
10572;DHT22;5334;48.928;12.704;2023-08-31T05:12:17;13.90;99.90
10572;DHT22;5334;48.928;12.704;2023-08-31T05:14:43;13.90;99.90
10572;DHT22;5334;48.928;12.704;2023-08-31T05:17:08;14.00;99.90
10572;DHT22;5334;48.928;12.704;2023-08-31T05:19:34;14.00;99.90
10572;DHT22;5334;48.928;12.704;2023-08-31T05:22:00;14.00;99.90
10572;DHT22;5334;48.928;12.704;2023-08-31T05:24:26;14.00;99.90
10572;DHT22;5334;48.928;12.704;2023-08-31T05:26:52;14.10;99.90
10572;DHT22;5334;48.928;12.704;2023-08-31T05:29:17;14.10;99.90
10572;DHT22;5334;48.928;12.704;2023-08-31T05:31:43;14.10;99.90
10572;DHT22;5334;48.928;12.704;2023-08-31T05:34:16;14.10;99.90
10572;DHT22;5334;48.928;12.704;2023-08-31T05:36:42;14.10;99.90
10572;DHT22;5334;48.928;12.704;2023-08-31T05:39:08;14.10;99.90
10572;DHT22;5334;48.928;12.704;2023-08-31T05:41:35;14.10;99.90
10572;DHT22;5334;48.928;12.704;2023-08-31T05:44:01;14.20;99.90
10572;DHT22;5334;48.928;12.704;2023-08-31T05:46:27;14.20;99.90
10572;DHT22;5334;48.928;12.704;2023-08-31T05:48:53;14.20;99.90
10572;DHT22;5334;48.928;12.704;2023-08-31T05:51:18;14.20;99.90
10572;DHT22;5334;48.928;12.704;2023-08-31T05:53:44;14.20;99.90
10572;DHT22;5334;48.928;12.704;2023-08-31T05:56:09;14.10;99.90
10572;DHT22;5334;48.928;12.704;2023-08-31T05:58:36;14.20;99.90
10572;DHT22;5334;48.928;12.704;2023-08-31T06:01:03;14.40;99.90
10572;DHT22;5334;48.928;12.704;2023-08-31T06:03:30;14.50;99.90
10572;DHT22;5334;48.928;12.704;2023-08-31T06:05:56;14.60;99.90
10572;DHT22;5334;48.928;12.704;2023-08-31T06:08:22;14.70;99.90
10572;DHT22;5334;48.928;12.704;2023-08-31T06:10:48;14.60;99.90
10572;DHT22;5334;48.928;12.704;2023-08-31T06:13:14;14.70;99.90
10572;DHT22;5334;48.928;12.704;2023-08-31T06:15:39;14.90;99.90
10572;DHT22;5334;48.928;12.704;2023-08-31T06:18:06;15.20;99.90
10572;DHT22;5334;48.928;12.704;2023-08-31T06:20:31;15.20;99.90
10572;DHT22;5334;48.928;12.704;2023-08-31T06:22:57;15.20;99.90
10572;DHT22;5334;48.928;12.704;2023-08-31T06:25:23;15.30;99.90
10572;DHT22;5334;48.928;12.704;2023-08-31T06:27:49;15.20;99.90
10572;DHT22;5334;48.928;12.704;2023-08-31T06:30:14;15.30;99.90
10572;DHT22;5334;48.928;12.704;2023-08-31T06:32:44;15.40;99.90
10572;DHT22;5334;48.928;12.704;2023-08-31T06:35:14;15.40;99.90
10572;DHT22;5334;48.928;12.704;2023-08-31T06:37:43;15.30;99.90
10572;DHT22;5334;48.928;12.704;2023-08-31T06:40:09;15.20;99.90
10572;DHT22;5334;48.928;12.704;2023-08-31T06:42:36;15.10;99.90
10572;DHT22;5334;48.928;12.704;2023-08-31T06:45:06;15.00;99.90
10572;DHT22;5334;48.928;12.704;2023-08-31T06:47:32;15.00;99.90
10572;DHT22;5334;48.928;12.704;2023-08-31T06:49:59;15.10;99.90
10572;DHT22;5334;48.928;12.704;2023-08-31T06:52:28;15.10;99.90
10572;DHT22;5334;48.928;12.704;2023-08-31T06:54:53;15.10;99.90
10572;DHT22;5334;48.928;12.704;2023-08-31T06:57:23;15.10;99.90
10572;DHT22;5334;48.928;12.704;2023-08-31T06:59:49;15.10;99.90
10572;DHT22;5334;48.928;12.704;2023-08-31T07:04:40;14.90;99.90
10572;DHT22;5334;48.928;12.704;2023-08-31T07:07:06;15.00;99.90
10572;DHT22;5334;48.928;12.704;2023-08-31T07:09:34;15.30;99.90
10572;DHT22;5334;48.928;12.704;2023-08-31T07:12:00;15.70;99.90
10572;DHT22;5334;48.928;12.704;2023-08-31T07:14:27;16.10;99.90
10572;DHT22;5334;48.928;12.704;2023-08-31T07:16:52;16.20;99.90
10572;DHT22;5334;48.928;12.704;2023-08-31T07:19:18;16.10;99.90
10572;DHT22;5334;48.928;12.704;2023-08-31T07:21:44;16.00;99.90
10572;DHT22;5334;48.928;12.704;2023-08-31T07:24:09;16.00;99.90
10572;DHT22;5334;48.928;12.704;2023-08-31T07:26:35;16.30;99.90
10572;DHT22;5334;48.928;12.704;2023-08-31T07:29:01;16.80;99.90
10572;DHT22;5334;48.928;12.704;2023-08-31T07:31:30;17.00;99.90
10572;DHT22;5334;48.928;12.704;2023-08-31T07:33:57;16.80;99.90
10572;DHT22;5334;48.928;12.704;2023-08-31T07:36:22;16.80;99.90
10572;DHT22;5334;48.928;12.704;2023-08-31T07:38:48;16.90;99.90
10572;DHT22;5334;48.928;12.704;2023-08-31T07:41:14;17.00;99.90
10572;DHT22;5334;48.928;12.704;2023-08-31T07:43:39;17.10;99.90
10572;DHT22;5334;48.928;12.704;2023-08-31T07:46:05;17.10;99.90
10572;DHT22;5334;48.928;12.704;2023-08-31T07:48:31;17.50;99.90
10572;DHT22;5334;48.928;12.704;2023-08-31T07:50:56;17.70;99.90
10572;DHT22;5334;48.928;12.704;2023-08-31T07:53:22;17.60;99.90
10572;DHT22;5334;48.928;12.704;2023-08-31T07:55:54;17.70;99.90
10572;DHT22;5334;48.928;12.704;2023-08-31T07:58:22;18.00;99.90
10572;DHT22;5334;48.928;12.704;2023-08-31T08:00:48;17.90;99.90
10572;DHT22;5334;48.928;12.704;2023-08-31T08:03:14;18.20;99.90
10572;DHT22;5334;48.928;12.704;2023-08-31T08:05:40;18.60;99.90
10572;DHT22;5334;48.928;12.704;2023-08-31T08:08:06;18.80;99.90
10572;DHT22;5334;48.928;12.704;2023-08-31T08:10:32;18.50;99.90
10572;DHT22;5334;48.928;12.704;2023-08-31T08:12:58;18.60;99.90
10572;DHT22;5334;48.928;12.704;2023-08-31T08:15:25;18.70;99.90
10572;DHT22;5334;48.928;12.704;2023-08-31T08:17:51;18.70;99.90
10572;DHT22;5334;48.928;12.704;2023-08-31T08:20:19;18.80;99.90
10572;DHT22;5334;48.928;12.704;2023-08-31T08:22:44;19.00;99.90
10572;DHT22;5334;48.928;12.704;2023-08-31T08:25:10;18.80;99.90
10572;DHT22;5334;48.928;12.704;2023-08-31T08:27:36;18.50;99.90
10572;DHT22;5334;48.928;12.704;2023-08-31T08:30:02;18.20;99.90
10572;DHT22;5334;48.928;12.704;2023-08-31T08:32:28;18.50;99.90
10572;DHT22;5334;48.928;12.704;2023-08-31T08:34:54;18.30;99.90
10572;DHT22;5334;48.928;12.704;2023-08-31T08:37:19;18.60;99.90
10572;DHT22;5334;48.928;12.704;2023-08-31T08:39:49;18.60;99.90
10572;DHT22;5334;48.928;12.704;2023-08-31T08:42:17;18.40;99.90
10572;DHT22;5334;48.928;12.704;2023-08-31T08:44:43;18.30;99.90
10572;DHT22;5334;48.928;12.704;2023-08-31T08:47:11;18.20;99.90
10572;DHT22;5334;48.928;12.704;2023-08-31T08:49:37;18.00;99.90
10572;DHT22;5334;48.928;12.704;2023-08-31T08:52:04;17.80;99.90
10572;DHT22;5334;48.928;12.704;2023-08-31T08:54:30;17.60;99.90
10572;DHT22;5334;48.928;12.704;2023-08-31T08:56:56;17.40;99.90
10572;DHT22;5334;48.928;12.704;2023-08-31T08:59:23;17.50;99.90
10572;DHT22;5334;48.928;12.704;2023-08-31T09:01:49;17.70;99.90
10572;DHT22;5334;48.928;12.704;2023-08-31T09:04:15;18.00;99.90
10572;DHT22;5334;48.928;12.704;2023-08-31T09:06:40;18.20;99.90
10572;DHT22;5334;48.928;12.704;2023-08-31T09:09:09;18.50;99.90
10572;DHT22;5334;48.928;12.704;2023-08-31T09:11:35;18.70;99.90
10572;DHT22;5334;48.928;12.704;2023-08-31T09:14:17;18.70;99.90
10572;DHT22;5334;48.928;12.704;2023-08-31T09:16:47;18.50;99.90
10572;DHT22;5334;48.928;12.704;2023-08-31T09:19:20;18.10;99.90
10572;DHT22;5334;48.928;12.704;2023-08-31T09:21:48;17.90;99.90
10572;DHT22;5334;48.928;12.704;2023-08-31T09:24:14;17.80;99.90
10572;DHT22;5334;48.928;12.704;2023-08-31T09:26:43;17.60;99.90
10572;DHT22;5334;48.928;12.704;2023-08-31T09:29:09;17.50;99.90
10572;DHT22;5334;48.928;12.704;2023-08-31T09:31:35;17.40;99.90
10572;DHT22;5334;48.928;12.704;2023-08-31T09:34:01;17.30;99.90
10572;DHT22;5334;48.928;12.704;2023-08-31T09:36:26;17.40;99.90
10572;DHT22;5334;48.928;12.704;2023-08-31T09:38:57;17.40;99.90
10572;DHT22;5334;48.928;12.704;2023-08-31T09:41:23;17.50;99.90
10572;DHT22;5334;48.928;12.704;2023-08-31T09:43:48;17.40;99.90
10572;DHT22;5334;48.928;12.704;2023-08-31T09:46:14;17.40;99.90
10572;DHT22;5334;48.928;12.704;2023-08-31T09:48:42;17.40;99.90
10572;DHT22;5334;48.928;12.704;2023-08-31T09:51:09;17.40;99.90
10572;DHT22;5334;48.928;12.704;2023-08-31T09:53:36;17.40;99.90
10572;DHT22;5334;48.928;12.704;2023-08-31T09:56:04;17.40;99.90
10572;DHT22;5334;48.928;12.704;2023-08-31T09:58:31;17.40;99.90
10572;DHT22;5334;48.928;12.704;2023-08-31T10:00:57;17.60;99.90
10572;DHT22;5334;48.928;12.704;2023-08-31T10:03:23;17.60;99.90
10572;DHT22;5334;48.928;12.704;2023-08-31T10:05:51;17.60;99.90
10572;DHT22;5334;48.928;12.704;2023-08-31T10:08:17;17.60;99.90
10572;DHT22;5334;48.928;12.704;2023-08-31T10:10:44;17.30;99.90
10572;DHT22;5334;48.928;12.704;2023-08-31T10:13:11;17.20;99.90
10572;DHT22;5334;48.928;12.704;2023-08-31T10:15:36;17.20;99.90
10572;DHT22;5334;48.928;12.704;2023-08-31T10:18:06;17.30;99.90
10572;DHT22;5334;48.928;12.704;2023-08-31T10:20:33;17.40;99.90
10572;DHT22;5334;48.928;12.704;2023-08-31T10:23:04;17.60;99.90
10572;DHT22;5334;48.928;12.704;2023-08-31T10:28:25;17.60;99.90
10572;DHT22;5334;48.928;12.704;2023-08-31T10:33:27;17.70;99.90
10572;DHT22;5334;48.928;12.704;2023-08-31T10:35:55;17.60;99.90
10572;DHT22;5334;48.928;12.704;2023-08-31T10:38:26;17.50;99.90
10572;DHT22;5334;48.928;12.704;2023-08-31T10:43:47;17.60;99.90
10572;DHT22;5334;48.928;12.704;2023-08-31T10:46:35;17.80;99.90
10572;DHT22;5334;48.928;12.704;2023-08-31T10:51:44;19.50;99.90
10572;DHT22;5334;48.928;12.704;2023-08-31T10:59:25;20.10;99.90
10572;DHT22;5334;48.928;12.704;2023-08-31T11:01:52;20.00;99.90
10572;DHT22;5334;48.928;12.704;2023-08-31T11:04:24;19.80;99.90
10572;DHT22;5334;48.928;12.704;2023-08-31T11:07:13;19.70;99.40
10572;DHT22;5334;48.928;12.704;2023-08-31T11:09:43;19.50;99.90
10572;DHT22;5334;48.928;12.704;2023-08-31T11:12:09;19.20;99.90
10572;DHT22;5334;48.928;12.704;2023-08-31T11:14:35;18.90;99.90
10572;DHT22;5334;48.928;12.704;2023-08-31T11:17:02;18.90;99.90
10572;DHT22;5334;48.928;12.704;2023-08-31T11:19:30;19.10;99.90
10572;DHT22;5334;48.928;12.704;2023-08-31T11:21:56;19.10;99.90
10572;DHT22;5334;48.928;12.704;2023-08-31T11:24:22;19.20;99.90
10572;DHT22;5334;48.928;12.704;2023-08-31T11:26:51;19.50;99.90
10572;DHT22;5334;48.928;12.704;2023-08-31T11:29:17;19.70;99.90
10572;DHT22;5334;48.928;12.704;2023-08-31T11:34:14;20.20;99.90
10572;DHT22;5334;48.928;12.704;2023-08-31T11:36:41;19.90;99.90
10572;DHT22;5334;48.928;12.704;2023-08-31T11:39:09;19.80;99.90
10572;DHT22;5334;48.928;12.704;2023-08-31T11:41:35;20.10;99.90
10572;DHT22;5334;48.928;12.704;2023-08-31T11:44:03;20.30;99.90
10572;DHT22;5334;48.928;12.704;2023-08-31T11:46:30;20.50;99.90
10572;DHT22;5334;48.928;12.704;2023-08-31T11:48:56;20.80;99.80
10572;DHT22;5334;48.928;12.704;2023-08-31T11:51:22;20.90;99.90
10572;DHT22;5334;48.928;12.704;2023-08-31T11:53:48;20.80;98.60
10572;DHT22;5334;48.928;12.704;2023-08-31T12:01:23;20.90;97.90
10572;DHT22;5334;48.928;12.704;2023-08-31T12:03:49;20.40;98.90
10572;DHT22;5334;48.928;12.704;2023-08-31T12:06:19;20.50;99.90
10572;DHT22;5334;48.928;12.704;2023-08-31T12:08:44;20.90;99.10
10572;DHT22;5334;48.928;12.704;2023-08-31T12:11:10;21.30;99.90
10572;DHT22;5334;48.928;12.704;2023-08-31T12:13:37;21.40;98.60
10572;DHT22;5334;48.928;12.704;2023-08-31T12:16:03;21.00;99.60
10572;DHT22;5334;48.928;12.704;2023-08-31T12:18:30;20.70;99.80
10572;DHT22;5334;48.928;12.704;2023-08-31T12:20:59;20.70;99.90
10572;DHT22;5334;48.928;12.704;2023-08-31T12:23:26;20.50;99.90
10572;DHT22;5334;48.928;12.704;2023-08-31T12:25:52;20.50;99.90
10572;DHT22;5334;48.928;12.704;2023-08-31T12:28:20;21.20;99.90
10572;DHT22;5334;48.928;12.704;2023-08-31T12:33:13;22.70;98.50
10572;DHT22;5334;48.928;12.704;2023-08-31T12:35:39;22.80;97.70
10572;DHT22;5334;48.928;12.704;2023-08-31T12:38:05;22.70;97.90
10572;DHT22;5334;48.928;12.704;2023-08-31T12:40:31;22.80;96.70
10572;DHT22;5334;48.928;12.704;2023-08-31T12:42:56;22.80;97.10
10572;DHT22;5334;48.928;12.704;2023-08-31T12:45:22;22.80;97.10
10572;DHT22;5334;48.928;12.704;2023-08-31T12:47:48;22.90;96.70
10572;DHT22;5334;48.928;12.704;2023-08-31T12:50:13;22.90;95.70
10572;DHT22;5334;48.928;12.704;2023-08-31T12:52:39;22.40;96.70
10572;DHT22;5334;48.928;12.704;2023-08-31T12:55:10;22.60;97.20
10572;DHT22;5334;48.928;12.704;2023-08-31T12:57:36;22.90;97.20
10572;DHT22;5334;48.928;12.704;2023-08-31T13:02:32;23.80;95.30
10572;DHT22;5334;48.928;12.704;2023-08-31T13:04:57;23.80;95.60
10572;DHT22;5334;48.928;12.704;2023-08-31T13:07:23;23.80;95.20
10572;DHT22;5334;48.928;12.704;2023-08-31T13:09:48;23.40;94.80
10572;DHT22;5334;48.928;12.704;2023-08-31T13:12:14;23.40;96.00
10572;DHT22;5334;48.928;12.704;2023-08-31T13:14:40;23.40;95.70
10572;DHT22;5334;48.928;12.704;2023-08-31T13:17:06;23.30;95.70
10572;DHT22;5334;48.928;12.704;2023-08-31T13:19:32;23.20;95.70
10572;DHT22;5334;48.928;12.704;2023-08-31T13:21:57;22.90;95.50
10572;DHT22;5334;48.928;12.704;2023-08-31T13:24:23;22.30;94.70
10572;DHT22;5334;48.928;12.704;2023-08-31T13:26:48;22.20;96.40
10572;DHT22;5334;48.928;12.704;2023-08-31T13:29:15;21.80;96.10
10572;DHT22;5334;48.928;12.704;2023-08-31T13:31:40;21.90;96.40
10572;DHT22;5334;48.928;12.704;2023-08-31T13:34:06;21.80;95.90
10572;DHT22;5334;48.928;12.704;2023-08-31T13:36:36;21.70;95.40
10572;DHT22;5334;48.928;12.704;2023-08-31T13:39:02;21.90;96.30
10572;DHT22;5334;48.928;12.704;2023-08-31T13:43:55;22.70;94.70
10572;DHT22;5334;48.928;12.704;2023-08-31T13:46:21;22.40;94.20
10572;DHT22;5334;48.928;12.704;2023-08-31T13:48:46;22.50;94.40
10572;DHT22;5334;48.928;12.704;2023-08-31T13:51:13;21.90;95.10
10572;DHT22;5334;48.928;12.704;2023-08-31T13:53:39;21.70;96.10
10572;DHT22;5334;48.928;12.704;2023-08-31T13:56:05;21.70;96.20
10572;DHT22;5334;48.928;12.704;2023-08-31T14:00:56;21.00;96.20
10572;DHT22;5334;48.928;12.704;2023-08-31T14:03:22;20.70;97.50
10572;DHT22;5334;48.928;12.704;2023-08-31T14:05:48;20.60;98.00
10572;DHT22;5334;48.928;12.704;2023-08-31T14:08:15;20.90;98.10
10572;DHT22;5334;48.928;12.704;2023-08-31T14:10:40;21.40;96.90
10572;DHT22;5334;48.928;12.704;2023-08-31T14:13:06;21.70;96.40
10572;DHT22;5334;48.928;12.704;2023-08-31T14:15:32;22.00;97.00
10572;DHT22;5334;48.928;12.704;2023-08-31T14:17:58;22.30;96.40
10572;DHT22;5334;48.928;12.704;2023-08-31T14:20:24;22.60;96.10
10572;DHT22;5334;48.928;12.704;2023-08-31T14:22:50;22.60;96.00
10572;DHT22;5334;48.928;12.704;2023-08-31T14:25:16;22.20;95.80
10572;DHT22;5334;48.928;12.704;2023-08-31T14:27:42;21.40;95.90
10572;DHT22;5334;48.928;12.704;2023-08-31T14:30:09;20.90;96.80
10572;DHT22;5334;48.928;12.704;2023-08-31T14:32:34;20.70;98.20
10572;DHT22;5334;48.928;12.704;2023-08-31T14:35:00;20.50;97.80
10572;DHT22;5334;48.928;12.704;2023-08-31T14:37:26;20.10;97.70
10572;DHT22;5334;48.928;12.704;2023-08-31T14:39:52;19.80;98.40
10572;DHT22;5334;48.928;12.704;2023-08-31T14:42:17;20.00;98.80
10572;DHT22;5334;48.928;12.704;2023-08-31T14:44:46;20.00;98.70
10572;DHT22;5334;48.928;12.704;2023-08-31T14:47:12;20.50;99.00
10572;DHT22;5334;48.928;12.704;2023-08-31T14:49:39;20.80;98.00
10572;DHT22;5334;48.928;12.704;2023-08-31T14:52:08;20.60;96.80
10572;DHT22;5334;48.928;12.704;2023-08-31T14:54:34;20.30;97.10
10572;DHT22;5334;48.928;12.704;2023-08-31T14:56:59;20.40;97.90
10572;DHT22;5334;48.928;12.704;2023-08-31T14:59:25;20.40;97.00
10572;DHT22;5334;48.928;12.704;2023-08-31T15:01:52;20.60;97.20
10572;DHT22;5334;48.928;12.704;2023-08-31T15:04:18;20.80;97.10
10572;DHT22;5334;48.928;12.704;2023-08-31T15:06:43;20.70;97.40
10572;DHT22;5334;48.928;12.704;2023-08-31T15:09:09;20.50;97.30
10572;DHT22;5334;48.928;12.704;2023-08-31T15:11:35;20.80;98.10
10572;DHT22;5334;48.928;12.704;2023-08-31T15:14:02;21.10;97.40
10572;DHT22;5334;48.928;12.704;2023-08-31T15:16:29;21.10;97.60
10572;DHT22;5334;48.928;12.704;2023-08-31T15:18:55;21.40;97.20
10572;DHT22;5334;48.928;12.704;2023-08-31T15:21:21;21.30;96.80
10572;DHT22;5334;48.928;12.704;2023-08-31T15:23:47;21.00;97.40
10572;DHT22;5334;48.928;12.704;2023-08-31T15:26:12;20.60;98.20
10572;DHT22;5334;48.928;12.704;2023-08-31T15:28:43;20.80;98.50
10572;DHT22;5334;48.928;12.704;2023-08-31T15:31:12;21.30;97.50
10572;DHT22;5334;48.928;12.704;2023-08-31T15:33:38;21.80;97.10
10572;DHT22;5334;48.928;12.704;2023-08-31T15:36:08;22.10;95.60
10572;DHT22;5334;48.928;12.704;2023-08-31T15:38:34;22.20;95.60
10572;DHT22;5334;48.928;12.704;2023-08-31T15:41:01;21.90;95.60
10572;DHT22;5334;48.928;12.704;2023-08-31T15:43:31;21.50;95.60
10572;DHT22;5334;48.928;12.704;2023-08-31T15:46:01;21.20;96.80
10572;DHT22;5334;48.928;12.704;2023-08-31T15:48:28;21.00;96.20
10572;DHT22;5334;48.928;12.704;2023-08-31T15:50:55;21.10;96.50
10572;DHT22;5334;48.928;12.704;2023-08-31T15:53:21;21.30;96.60
10572;DHT22;5334;48.928;12.704;2023-08-31T15:55:48;21.30;96.40
10572;DHT22;5334;48.928;12.704;2023-08-31T15:58:14;21.00;96.30
10572;DHT22;5334;48.928;12.704;2023-08-31T16:00:40;20.70;96.30
10572;DHT22;5334;48.928;12.704;2023-08-31T16:03:06;20.40;95.50
10572;DHT22;5334;48.928;12.704;2023-08-31T16:05:33;20.20;95.80
10572;DHT22;5334;48.928;12.704;2023-08-31T16:08:00;20.20;95.90
10572;DHT22;5334;48.928;12.704;2023-08-31T16:10:25;20.10;95.90
10572;DHT22;5334;48.928;12.704;2023-08-31T16:12:51;20.30;96.60
10572;DHT22;5334;48.928;12.704;2023-08-31T16:15:17;20.70;96.00